createdAt,value
2023-04-26T00:00:22.783Z,53.7477
2023-04-26T00:01:24.510Z,52.4662
2023-04-26T00:02:26.276Z,52.6208
2023-04-26T00:03:27.976Z,53.2023
2023-04-26T00:04:29.659Z,52.5015
2023-04-26T00:05:31.216Z,51.5500
2023-04-26T00:06:32.747Z,50.6808
2023-04-26T00:07:34.403Z,50.8254
2023-04-26T00:08:36.102Z,51.1254
2023-04-26T00:09:37.693Z,50.6200
2023-04-26T00:10:39.330Z,50.9585
2023-04-26T00:11:40.972Z,50.9485
2023-04-26T00:12:42.640Z,52.0008
2023-04-26T00:13:44.858Z,51.8977
2023-04-26T00:14:45.934Z,53.5692
2023-04-26T00:15:47.571Z,53.5531
2023-04-26T00:16:49.328Z,53.7269
2023-04-26T00:17:51.949Z,51.9654
2023-04-26T00:18:53.850Z,51.5192
2023-04-26T00:19:54.129Z,52.1500
2023-04-26T00:20:57.284Z,51.1277
2023-04-26T00:21:57.425Z,50.6162
2023-04-26T00:22:59.155Z,50.5715
2023-04-26T00:24:00.804Z,51.0354
2023-04-26T00:25:02.432Z,51.4369
2023-04-26T00:26:04.112Z,52.2515
2023-04-26T00:27:06.744Z,52.9723
2023-04-26T00:28:07.348Z,53.3723
2023-04-26T00:29:09.018Z,52.2077
2023-04-26T00:30:10.681Z,51.3031
2023-04-26T00:31:12.353Z,51.9115
2023-04-26T00:32:13.965Z,52.1162
2023-04-26T00:33:15.636Z,50.5569
2023-04-26T00:34:17.237Z,51.0792
2023-04-26T00:35:18.897Z,50.8238
2023-04-26T00:36:20.560Z,52.0869
2023-04-26T00:37:22.203Z,52.1531
2023-04-26T00:38:23.892Z,53.3977
2023-04-26T00:39:25.546Z,53.2677
2023-04-26T00:40:27.136Z,53.0762
2023-04-26T00:41:28.819Z,51.9592
2023-04-26T00:42:30.422Z,51.1992
2023-04-26T00:43:32.151Z,51.7454
2023-04-26T00:44:33.765Z,50.9392
2023-04-26T00:45:35.536Z,50.5762
2023-04-26T00:46:37.038Z,50.6200
2023-04-26T00:47:38.782Z,50.7592
2023-04-26T00:48:40.401Z,50.2715
2023-04-26T00:49:42.125Z,50.4992
2023-04-26T00:50:43.629Z,50.3400
2023-04-26T00:51:45.363Z,50.4477
2023-04-26T00:52:46.956Z,50.6100
2023-04-26T00:53:48.653Z,50.3192
2023-04-26T00:54:50.345Z,50.0046
2023-04-26T00:55:52.001Z,50.4185
2023-04-26T00:56:53.559Z,50.2723
2023-04-26T00:57:55.291Z,50.7008
2023-04-26T00:58:56.906Z,51.5946
2023-04-26T00:59:58.589Z,52.4154
2023-04-26T01:01:00.264Z,53.4623
2023-04-26T01:02:01.887Z,53.6646
2023-04-26T01:03:03.670Z,51.9277
2023-04-26T01:04:05.406Z,52.0223
2023-04-26T01:05:06.838Z,51.2838
2023-04-26T01:06:08.506Z,50.5723
2023-04-26T01:07:10.152Z,50.6092
2023-04-26T01:08:11.799Z,50.9677
2023-04-26T01:09:13.412Z,51.1462
2023-04-26T01:10:15.178Z,50.1923
2023-04-26T01:11:16.701Z,51.6038
2023-04-26T01:12:18.384Z,51.1238
2023-04-26T01:13:20.041Z,50.3477
2023-04-26T01:14:21.764Z,50.5415
2023-04-26T01:15:23.324Z,52.9831
2023-04-26T01:16:25.094Z,52.3377
2023-04-26T01:17:26.701Z,52.1531
2023-04-26T01:18:28.326Z,53.4854
2023-04-26T01:19:30.035Z,53.1754
2023-04-26T01:20:31.643Z,51.8877
2023-04-26T01:21:33.286Z,51.9077
2023-04-26T01:22:34.985Z,51.2423
2023-04-26T01:23:36.515Z,50.2723
2023-04-26T01:24:38.264Z,50.8092
2023-04-26T01:25:39.832Z,50.8662
2023-04-26T01:26:41.505Z,50.1554
2023-04-26T01:27:43.190Z,49.8654
2023-04-26T01:28:44.807Z,51.5654
2023-04-26T01:29:47.534Z,50.6462
2023-04-26T01:30:48.200Z,50.3592
2023-04-26T01:31:49.722Z,50.1238
2023-04-26T01:32:51.457Z,50.5277
2023-04-26T01:33:53.013Z,50.5062
2023-04-26T01:34:54.717Z,52.5208
2023-04-26T01:35:56.416Z,52.8754
2023-04-26T01:36:58.014Z,52.9146
2023-04-26T01:37:59.646Z,52.9577
2023-04-26T01:39:01.341Z,52.6246
2023-04-26T01:40:02.986Z,51.3546
2023-04-26T01:41:04.660Z,51.5923
2023-04-26T01:42:06.319Z,52.4162
2023-04-26T01:43:07.951Z,50.7785
2023-04-26T01:44:09.533Z,51.0015
2023-04-26T01:45:11.278Z,51.6862
2023-04-26T01:46:12.957Z,50.9092
2023-04-26T01:47:14.526Z,51.5462
2023-04-26T01:48:16.157Z,51.0177
2023-04-26T01:49:17.844Z,50.5738
2023-04-26T01:50:19.518Z,50.2085
2023-04-26T01:51:21.183Z,50.9138
2023-04-26T01:52:22.795Z,50.6631
2023-04-26T01:53:24.464Z,49.9662
2023-04-26T01:54:26.162Z,50.4685
2023-04-26T01:55:27.796Z,50.0377
2023-04-26T01:56:29.426Z,50.2277
2023-04-26T01:57:31.080Z,49.8862
2023-04-26T01:58:32.707Z,49.8354
2023-04-26T01:59:34.375Z,49.9846
2023-04-26T02:00:36.121Z,50.2792
2023-04-26T02:01:37.755Z,50.5377
2023-04-26T02:02:39.330Z,52.5246
2023-04-26T02:03:41.014Z,53.0623
2023-04-26T02:04:42.666Z,52.0985
2023-04-26T02:05:44.767Z,51.7062
2023-04-26T02:06:45.901Z,51.7854
2023-04-26T02:07:47.616Z,51.6062
2023-04-26T02:08:49.409Z,50.1946
2023-04-26T02:09:50.905Z,50.7123
2023-04-26T02:10:52.559Z,50.1108
2023-04-26T02:11:54.242Z,49.6869
2023-04-26T02:12:55.855Z,49.3285
2023-04-26T02:13:57.484Z,49.3223
2023-04-26T02:14:59.109Z,48.7500
2023-04-26T02:16:00.828Z,49.8077
2023-04-26T02:17:02.450Z,49.9531
2023-04-26T02:18:04.175Z,49.7477
2023-04-26T02:19:05.802Z,49.6354
2023-04-26T02:20:07.389Z,49.4408
2023-04-26T02:21:09.023Z,49.3631
2023-04-26T02:22:10.733Z,49.5477
2023-04-26T02:23:12.353Z,49.6423
2023-04-26T02:24:14.006Z,50.5646
2023-04-26T02:25:15.694Z,52.2462
2023-04-26T02:26:18.238Z,53.0746
2023-04-26T02:27:18.965Z,52.7962
2023-04-26T02:28:20.643Z,51.8500
2023-04-26T02:29:35.958Z,50.6569
2023-04-26T02:30:24.501Z,51.0054
2023-04-26T02:31:25.605Z,50.1831
2023-04-26T02:32:27.270Z,49.7077
2023-04-26T02:33:28.921Z,49.4962
2023-04-26T02:34:30.506Z,49.5262
2023-04-26T02:35:32.203Z,49.8038
2023-04-26T02:36:33.817Z,48.2854
2023-04-26T02:37:35.832Z,49.1831
2023-04-26T02:38:37.313Z,48.8077
2023-04-26T02:39:38.756Z,50.0608
2023-04-26T02:40:40.390Z,49.2115
2023-04-26T02:41:42.081Z,48.9092
2023-04-26T02:42:43.723Z,49.6154
2023-04-26T02:43:45.426Z,50.2300
2023-04-26T02:44:46.988Z,51.2069
2023-04-26T02:45:48.670Z,51.7738
2023-04-26T02:46:50.332Z,52.1731
2023-04-26T02:47:52.064Z,52.2492
2023-04-26T02:48:54.052Z,50.9515
2023-04-26T02:49:55.343Z,50.8854
2023-04-26T02:50:56.909Z,52.0215
2023-04-26T02:51:58.489Z,52.2915
2023-04-26T02:53:00.672Z,51.5262
2023-04-26T02:54:01.824Z,50.8254
2023-04-26T02:55:03.745Z,49.6162
2023-04-26T02:56:05.110Z,49.3708
2023-04-26T02:57:06.724Z,49.1192
2023-04-26T02:58:08.380Z,48.8231
2023-04-26T02:59:10.022Z,49.3054
2023-04-26T03:00:11.748Z,49.5923
2023-04-26T03:01:13.397Z,50.5808
2023-04-26T03:02:15.088Z,51.4500
2023-04-26T03:03:16.916Z,53.1531
2023-04-26T03:04:18.461Z,53.3662
2023-04-26T03:05:20.201Z,51.5192
2023-04-26T03:06:21.594Z,51.4769
2023-04-26T03:07:23.302Z,50.1400
2023-04-26T03:08:24.931Z,50.7177
2023-04-26T03:09:26.625Z,50.4208
2023-04-26T03:10:28.234Z,49.3538
2023-04-26T03:11:29.875Z,50.0392
2023-04-26T03:12:31.564Z,50.0015
2023-04-26T03:13:33.123Z,50.6938
2023-04-26T03:14:36.768Z,49.9231
2023-04-26T03:15:36.459Z,50.8185
2023-04-26T03:16:38.190Z,49.8800
2023-04-26T03:17:39.781Z,49.5092
2023-04-26T03:18:41.448Z,48.9769
2023-04-26T03:19:43.077Z,48.9931
2023-04-26T03:20:44.783Z,49.7554
2023-04-26T03:21:46.370Z,51.2700
2023-04-26T03:22:48.055Z,51.0138
2023-04-26T03:23:49.657Z,51.2331
2023-04-26T03:24:51.482Z,49.7854
2023-04-26T03:25:53.165Z,50.5862
2023-04-26T03:26:54.782Z,50.3062
2023-04-26T03:27:56.364Z,50.1862
2023-04-26T03:28:58.672Z,50.3615
2023-04-26T03:29:59.720Z,49.8085
2023-04-26T03:31:01.397Z,50.6146
2023-04-26T03:32:03.723Z,51.4308
2023-04-26T03:33:04.647Z,51.5285
2023-04-26T03:34:06.270Z,51.2123
2023-04-26T03:35:07.971Z,50.6054
2023-04-26T03:36:09.678Z,49.8938
2023-04-26T03:37:11.287Z,49.7369
2023-04-26T03:38:12.905Z,49.8069
2023-04-26T03:39:14.548Z,49.4954
2023-04-26T03:40:16.208Z,49.0831
2023-04-26T03:41:17.917Z,48.7677
2023-04-26T03:42:19.746Z,48.8138
2023-04-26T03:43:21.226Z,48.9646
2023-04-26T03:44:22.764Z,48.9277
2023-04-26T03:45:24.470Z,48.2438
2023-04-26T03:46:26.149Z,48.1831
2023-04-26T03:47:27.814Z,48.7169
2023-04-26T03:48:29.440Z,48.9338
2023-04-26T03:49:31.112Z,49.4869
2023-04-26T03:50:32.704Z,48.3954
2023-04-26T03:51:34.378Z,48.3654
2023-04-26T03:52:35.991Z,47.9692
2023-04-26T03:53:37.771Z,48.2331
2023-04-26T03:54:39.292Z,47.6246
2023-04-26T03:55:40.957Z,47.6108
2023-04-26T03:56:42.626Z,47.5300
2023-04-26T03:57:44.360Z,48.0885
2023-04-26T03:58:46.233Z,49.1631
2023-04-26T03:59:47.621Z,49.3554
2023-04-26T04:00:50.205Z,49.4638
2023-04-26T04:01:50.894Z,48.1215
2023-04-26T04:02:52.643Z,47.3277
2023-04-26T04:03:54.989Z,47.1523
2023-04-26T04:04:55.971Z,46.9985
2023-04-26T04:05:57.512Z,47.6477
2023-04-26T04:06:59.147Z,48.1523
2023-04-26T04:08:00.808Z,49.0815
2023-04-26T04:09:02.762Z,48.5108
2023-04-26T04:10:04.144Z,48.0438
2023-04-26T04:11:05.724Z,47.0069
2023-04-26T04:12:08.246Z,47.0062
2023-04-26T04:13:09.020Z,46.4169
2023-04-26T04:14:10.776Z,46.0315
2023-04-26T04:15:12.391Z,46.3015
2023-04-26T04:16:14.755Z,46.0831
2023-04-26T04:17:15.625Z,46.1777
2023-04-26T04:18:17.355Z,46.0969
2023-04-26T04:19:19.110Z,45.8469
2023-04-26T04:20:21.306Z,45.4577
2023-04-26T04:21:22.295Z,44.9731
2023-04-26T04:22:23.952Z,44.8585
2023-04-26T04:23:25.544Z,44.5538
2023-04-26T04:24:27.298Z,44.3246
2023-04-26T04:25:28.837Z,44.1523
2023-04-26T04:26:30.565Z,44.1400
2023-04-26T04:27:32.146Z,44.5092
2023-04-26T04:28:33.846Z,44.5408
2023-04-26T04:29:35.438Z,44.3992
2023-04-26T04:30:37.122Z,44.7100
2023-04-26T04:31:38.876Z,44.5954
2023-04-26T04:32:40.832Z,44.7315
2023-04-26T04:33:42.100Z,44.4077
2023-04-26T04:34:43.737Z,44.1023
2023-04-26T04:35:46.223Z,44.0123
2023-04-26T04:36:47.069Z,44.3092
2023-04-26T04:37:48.713Z,44.5115
2023-04-26T04:38:50.609Z,44.4131
2023-04-26T04:39:51.940Z,44.6977
2023-04-26T04:40:53.684Z,44.8554
2023-04-26T04:41:55.538Z,44.6385
2023-04-26T04:42:56.966Z,44.7938
2023-04-26T04:43:58.619Z,44.7808
2023-04-26T04:45:00.210Z,44.8546
2023-04-26T04:46:01.936Z,44.8315
2023-04-26T04:47:03.610Z,44.5315
2023-04-26T04:48:05.413Z,44.4269
2023-04-26T04:49:07.938Z,44.6254
2023-04-26T04:50:09.025Z,44.5392
2023-04-26T04:51:10.268Z,44.7962
2023-04-26T04:52:12.027Z,44.9838
2023-04-26T04:53:13.648Z,45.0523
2023-04-26T04:54:15.278Z,45.2508
2023-04-26T04:55:16.914Z,45.5031
2023-04-26T04:56:18.588Z,45.4631
2023-04-26T04:57:20.205Z,45.4823
2023-04-26T04:58:21.900Z,45.5262
2023-04-26T04:59:23.475Z,45.3677
2023-04-26T05:00:25.174Z,45.4292
2023-04-26T05:01:26.792Z,45.5923
2023-04-26T05:02:28.664Z,45.5115
2023-04-26T05:03:30.262Z,45.4523
2023-04-26T05:04:32.199Z,45.5931
2023-04-26T05:05:33.359Z,45.8215
2023-04-26T05:06:35.177Z,46.1331
2023-04-26T05:07:36.734Z,46.4285
2023-04-26T05:08:38.365Z,46.5346
2023-04-26T05:09:40.064Z,46.5792
2023-04-26T05:10:41.702Z,46.9146
2023-04-26T05:11:43.266Z,47.0915
2023-04-26T05:12:45.095Z,47.0923
2023-04-26T05:13:46.614Z,47.1469
2023-04-26T05:14:48.248Z,47.3485
2023-04-26T05:15:49.890Z,47.5100
2023-04-26T05:16:51.747Z,47.5708
2023-04-26T05:17:53.220Z,47.5931
2023-04-26T05:18:54.985Z,47.9269
2023-04-26T05:19:56.512Z,47.9315
2023-04-26T05:20:58.190Z,48.1408
2023-04-26T05:21:59.852Z,48.1185
2023-04-26T05:23:01.508Z,48.5346
2023-04-26T05:24:03.171Z,48.3977
2023-04-26T05:25:05.751Z,48.5215
2023-04-26T05:26:06.418Z,48.7292
2023-04-26T05:27:08.053Z,48.7323
2023-04-26T05:28:09.730Z,48.7662
2023-04-26T05:29:11.394Z,49.1777
2023-04-26T05:30:13.043Z,49.2269
2023-04-26T05:31:14.646Z,49.2354
2023-04-26T05:32:16.356Z,49.1177
2023-04-26T05:33:18.965Z,49.3931
2023-04-26T05:34:19.700Z,49.3915
2023-04-26T05:35:21.298Z,49.4000
2023-04-26T05:36:22.955Z,49.7323
2023-04-26T05:37:25.527Z,49.6585
2023-04-26T05:38:27.184Z,49.5062
2023-04-26T05:39:27.836Z,49.4223
2023-04-26T05:40:29.516Z,49.6685
2023-04-26T05:41:31.075Z,49.7215
2023-04-26T05:42:32.785Z,49.8031
2023-04-26T05:43:34.425Z,49.8415
2023-04-26T05:44:36.448Z,49.9077
2023-04-26T05:45:37.835Z,49.9331
2023-04-26T05:46:39.814Z,50.1546
2023-04-26T05:47:40.985Z,50.1854
2023-04-26T05:48:42.613Z,50.2292
2023-04-26T05:49:44.254Z,50.2192
2023-04-26T05:50:45.907Z,50.3477
2023-04-26T05:51:47.520Z,50.3215
2023-04-26T05:52:49.165Z,50.2631
2023-04-26T05:53:51.173Z,50.4508
2023-04-26T05:54:52.467Z,50.4923
2023-04-26T05:55:54.192Z,50.4546
2023-04-26T05:56:57.822Z,50.5323
2023-04-26T05:57:57.458Z,50.5077
2023-04-26T05:59:00.029Z,50.7346
2023-04-26T06:00:00.843Z,50.6708
2023-04-26T06:01:02.516Z,50.7131
2023-04-26T06:02:04.089Z,50.7769
2023-04-26T06:03:05.957Z,50.7531
2023-04-26T06:04:07.898Z,50.8023
2023-04-26T06:05:09.414Z,50.8923
2023-04-26T06:06:10.725Z,50.8677
2023-04-26T06:07:12.353Z,50.9208
2023-04-26T06:08:13.966Z,50.9631
2023-04-26T06:09:16.526Z,51.1269
2023-04-26T06:10:17.328Z,51.0954
2023-04-26T06:11:19.456Z,51.1923
2023-04-26T06:12:20.578Z,51.1777
2023-04-26T06:13:22.264Z,51.2192
2023-04-26T06:15:25.612Z,51.5431
2023-04-26T06:16:27.924Z,51.6531
2023-04-26T06:17:28.920Z,51.7438
2023-04-26T06:18:30.491Z,51.7562
2023-04-26T06:19:32.180Z,51.7538
2023-04-26T06:20:33.853Z,51.6608
2023-04-26T06:21:35.937Z,51.8592
2023-04-26T06:22:37.096Z,51.8215
2023-04-26T06:23:38.788Z,51.8200
2023-04-26T06:24:40.372Z,51.9815
2023-04-26T06:25:42.138Z,52.1038
2023-04-26T06:26:43.758Z,52.6369
2023-04-26T06:27:45.384Z,52.7838
2023-04-26T06:28:47.008Z,52.5415
2023-04-26T06:29:49.448Z,52.8615
2023-04-26T06:30:50.359Z,52.7054
2023-04-26T06:31:52.029Z,52.8000
2023-04-26T06:32:53.654Z,52.6846
2023-04-26T06:33:55.578Z,52.6423
2023-04-26T06:34:56.908Z,52.7631
2023-04-26T06:35:58.650Z,52.6515
2023-04-26T06:37:00.450Z,52.7200
2023-04-26T06:38:01.884Z,52.9800
2023-04-26T06:39:03.501Z,53.1723
2023-04-26T06:40:05.894Z,53.1077
2023-04-26T06:41:06.883Z,52.9877
2023-04-26T06:42:08.575Z,53.0454
2023-04-26T06:43:10.144Z,53.0138
2023-04-26T06:44:11.800Z,53.4677
2023-04-26T06:45:13.402Z,53.5931
2023-04-26T06:46:15.221Z,53.1400
2023-04-26T06:47:16.761Z,53.5962
2023-04-26T06:48:18.387Z,53.7608
2023-04-26T06:49:20.030Z,53.8531
2023-04-26T06:50:21.631Z,54.0338
2023-04-26T06:51:23.384Z,54.1262
2023-04-26T06:52:24.992Z,54.2277
2023-04-26T06:53:26.638Z,54.2531
2023-04-26T06:54:28.254Z,54.2215
2023-04-26T06:55:29.932Z,54.1838
2023-04-26T06:56:31.555Z,54.3292
2023-04-26T06:57:33.195Z,54.2915
2023-04-26T06:58:34.767Z,54.6077
2023-04-26T06:59:36.431Z,54.3608
2023-04-26T07:00:38.109Z,54.3823
2023-04-26T07:01:39.839Z,54.9831
2023-04-26T07:02:41.512Z,55.0169
2023-04-26T07:03:43.189Z,55.3031
2023-04-26T07:04:45.001Z,55.2908
2023-04-26T07:05:46.322Z,55.2438
2023-04-26T07:06:48.356Z,55.5300
2023-04-26T07:07:49.629Z,55.3377
2023-04-26T07:08:53.421Z,55.3915
2023-04-26T07:09:52.897Z,55.4885
2023-04-26T07:10:54.522Z,55.7577
2023-04-26T07:11:56.446Z,56.0454
2023-04-26T07:12:58.909Z,56.2362
2023-04-26T07:13:59.874Z,56.2223
2023-04-26T07:15:01.095Z,56.4569
2023-04-26T07:16:02.900Z,56.5138
2023-04-26T07:17:04.442Z,56.5692
2023-04-26T07:18:06.489Z,56.3738
2023-04-26T07:19:07.868Z,56.5138
2023-04-26T07:20:09.350Z,56.6446
2023-04-26T07:21:11.013Z,56.6338
2023-04-26T07:22:12.666Z,56.7838
2023-04-26T07:23:14.407Z,56.7015
2023-04-26T07:24:15.978Z,56.4800
2023-04-26T07:25:17.534Z,56.3000
2023-04-26T07:26:19.236Z,56.7569
2023-04-26T07:27:21.861Z,56.8992
2023-04-26T07:28:22.693Z,57.3969
2023-04-26T07:29:24.243Z,57.5762
2023-04-26T07:30:26.037Z,57.6177
2023-04-26T07:31:27.547Z,57.5892
2023-04-26T07:32:29.311Z,57.7562
2023-04-26T07:33:31.009Z,57.7146
2023-04-26T07:34:32.573Z,57.8108
2023-04-26T07:35:34.144Z,57.9531
2023-04-26T07:36:35.856Z,58.0092
2023-04-26T07:37:37.451Z,57.9677
2023-04-26T07:38:39.146Z,57.9108
2023-04-26T07:39:42.463Z,57.7700
2023-04-26T07:40:42.440Z,57.8885
2023-04-26T07:41:44.324Z,57.9462
2023-04-26T07:42:46.451Z,57.7992
2023-04-26T07:43:47.282Z,56.0369
2023-04-26T07:44:49.009Z,48.4754
2023-04-26T07:45:50.593Z,42.9415
2023-04-26T07:46:52.389Z,39.5500
2023-04-26T07:47:53.904Z,39.2292
2023-04-26T07:48:55.529Z,40.0492
2023-04-26T07:49:57.141Z,41.8762
2023-04-26T07:50:59.281Z,38.9677
2023-04-26T07:52:00.417Z,38.3754
2023-04-26T07:53:02.079Z,39.0077
2023-04-26T07:54:03.804Z,39.5654
2023-04-26T07:55:05.396Z,38.9477
2023-04-26T07:56:07.424Z,37.6069
2023-04-26T07:57:08.718Z,38.2900
2023-04-26T07:58:10.384Z,38.9846
2023-04-26T07:59:11.983Z,39.5677
2023-04-26T08:00:13.671Z,39.7269
2023-04-26T08:01:16.816Z,40.1108
2023-04-26T08:02:17.502Z,40.8700
2023-04-26T08:03:18.778Z,41.5400
2023-04-26T08:04:20.381Z,41.9500
2023-04-26T08:05:23.067Z,42.2531
2023-04-26T08:06:23.796Z,42.9654
2023-04-26T08:07:25.262Z,43.2662
2023-04-26T08:08:27.002Z,43.6385
2023-04-26T08:09:28.528Z,44.2231
2023-04-26T08:10:30.218Z,44.5638
2023-04-26T08:11:31.897Z,44.8392
2023-04-26T08:12:33.538Z,45.0231
2023-04-26T08:13:35.077Z,45.4015
2023-04-26T08:14:36.810Z,45.7454
2023-04-26T08:15:38.389Z,45.9762
2023-04-26T08:16:40.163Z,46.1808
2023-04-26T08:17:42.068Z,46.4946
2023-04-26T08:18:46.044Z,47.0508
2023-04-26T08:19:45.062Z,46.8700
2023-04-26T08:20:46.617Z,47.0708
2023-04-26T08:21:48.383Z,47.4677
2023-04-26T08:22:49.998Z,47.5438
2023-04-26T08:23:51.739Z,47.6992
2023-04-26T08:24:53.228Z,47.7923
2023-04-26T08:25:54.934Z,48.0377
2023-04-26T08:26:56.559Z,48.2877
2023-04-26T08:27:58.208Z,48.3769
2023-04-26T08:28:59.915Z,48.4477
2023-04-26T08:30:01.624Z,48.7123
2023-04-26T08:31:03.206Z,49.0577
2023-04-26T08:32:04.958Z,49.2408
2023-04-26T08:33:06.573Z,49.6300
2023-04-26T08:34:08.041Z,49.7638
2023-04-26T08:35:09.688Z,49.7177
2023-04-26T08:36:11.417Z,50.0431
2023-04-26T08:37:13.096Z,50.2200
2023-04-26T08:38:14.681Z,50.3323
2023-04-26T08:39:16.240Z,50.7131
2023-04-26T08:40:18.025Z,50.7300
2023-04-26T08:41:19.547Z,50.9092
2023-04-26T08:42:21.360Z,51.1569
2023-04-26T08:43:22.920Z,51.3123
2023-04-26T08:44:24.522Z,51.3854
2023-04-26T08:45:26.175Z,51.4677
2023-04-26T08:46:27.877Z,51.5292
2023-04-26T08:47:29.480Z,51.9092
2023-04-26T08:48:31.170Z,52.0538
2023-04-26T08:49:32.686Z,49.7138
2023-04-26T08:50:34.419Z,49.7300
2023-04-26T08:51:36.057Z,49.7031
2023-04-26T08:52:37.743Z,50.0585
2023-04-26T08:53:39.361Z,50.3823
2023-04-26T08:54:40.915Z,50.6892
2023-04-26T08:55:42.622Z,51.1154
2023-04-26T08:56:44.217Z,50.9769
2023-04-26T08:57:45.993Z,51.2385
2023-04-26T08:58:47.591Z,51.5208
2023-04-26T08:59:49.211Z,51.5177
2023-04-26T09:00:50.956Z,51.7269
2023-04-26T09:01:52.541Z,51.6077
2023-04-26T09:02:54.413Z,51.6269
2023-04-26T09:03:56.181Z,51.8485
2023-04-26T09:04:57.458Z,51.8954
2023-04-26T09:06:00.175Z,51.9585
2023-04-26T09:07:00.690Z,51.9177
2023-04-26T09:08:02.432Z,52.1131
2023-04-26T09:09:04.031Z,52.0123
2023-04-26T09:10:05.661Z,51.9092
2023-04-26T09:11:07.245Z,52.4438
2023-04-26T09:12:08.985Z,52.7354
2023-04-26T09:13:10.613Z,52.7231
2023-04-26T09:14:12.252Z,52.9308
2023-04-26T09:15:13.897Z,52.7985
2023-04-26T09:16:15.611Z,52.8962
2023-04-26T09:17:17.184Z,53.0800
2023-04-26T09:18:18.786Z,52.7646
2023-04-26T09:19:22.046Z,53.0800
2023-04-26T09:20:22.089Z,53.1308
2023-04-26T09:21:23.668Z,53.1177
2023-04-26T09:22:25.357Z,54.8715
2023-04-26T09:23:26.987Z,52.9838
2023-04-26T09:24:29.521Z,48.4715
2023-04-26T09:25:30.259Z,45.4654
2023-04-26T09:26:31.892Z,43.8908
2023-04-26T09:27:33.577Z,45.5354
2023-04-26T09:28:35.166Z,44.8038
2023-04-26T09:29:36.865Z,44.6762
2023-04-26T09:30:38.972Z,45.0869
2023-04-26T09:31:40.356Z,45.4408
2023-04-26T09:32:41.979Z,46.2600
2023-04-26T09:33:43.595Z,46.0131
2023-04-26T09:34:45.604Z,45.9508
2023-04-26T09:35:46.885Z,45.7977
2023-04-26T09:36:48.614Z,45.2469
2023-04-26T09:37:58.429Z,44.0731
2023-04-26T09:38:52.017Z,42.9577
2023-04-26T09:39:53.479Z,40.8400
2023-04-26T09:40:55.010Z,39.2454
2023-04-26T09:41:56.774Z,39.6892
2023-04-26T09:42:59.312Z,40.3838
2023-04-26T09:44:00.686Z,41.0454
2023-04-26T09:45:01.703Z,41.2446
2023-04-26T09:46:04.292Z,41.5700
2023-04-26T09:47:05.246Z,41.2762
2023-04-26T09:48:06.650Z,41.6969
2023-04-26T09:49:09.242Z,42.3538
2023-04-26T09:50:10.204Z,42.7054
2023-04-26T09:51:11.662Z,43.3408
2023-04-26T09:52:13.166Z,43.7031
2023-04-26T09:53:14.834Z,44.3708
2023-04-26T09:54:16.527Z,44.5438
2023-04-26T09:55:25.476Z,44.7377
2023-04-26T09:56:19.966Z,44.8133
2023-04-26T09:57:21.421Z,45.1323
2023-04-26T09:58:23.031Z,45.1954
2023-04-26T09:59:24.667Z,45.2123
2023-04-26T10:00:26.391Z,45.3515
2023-04-26T10:01:28.139Z,46.0338
2023-04-26T10:02:29.707Z,46.4377
2023-04-26T10:03:31.416Z,46.1515
2023-04-26T10:04:32.993Z,43.5269
2023-04-26T10:05:34.493Z,42.8054
2023-04-26T10:06:36.262Z,41.4454
2023-04-26T10:07:38.821Z,40.7931
2023-04-26T10:08:40.434Z,40.7515
2023-04-26T10:09:41.169Z,40.9077
2023-04-26T10:10:43.018Z,41.7062
2023-04-26T10:11:44.710Z,41.9677
2023-04-26T10:12:48.052Z,42.1069
2023-04-26T10:13:48.078Z,43.3523
2023-04-26T10:14:50.294Z,41.7931
2023-04-26T10:15:51.109Z,40.4131
2023-04-26T10:16:53.656Z,39.5415
2023-04-26T10:17:54.411Z,37.5477
2023-04-26T10:18:56.190Z,36.7415
2023-04-26T10:19:57.689Z,36.9138
2023-04-26T10:20:59.384Z,37.2031
2023-04-26T10:22:01.027Z,37.7738
2023-04-26T10:23:03.529Z,36.9415
2023-04-26T10:24:04.521Z,36.3615
2023-04-26T10:25:06.818Z,36.0977
2023-04-26T10:26:07.573Z,36.5285
2023-04-26T10:27:09.154Z,37.1608
2023-04-26T10:28:10.901Z,39.5377
2023-04-26T10:29:12.482Z,38.6885
2023-04-26T10:30:14.090Z,38.3931
2023-04-26T10:31:15.783Z,39.2738
2023-04-26T10:32:17.635Z,39.8977
2023-04-26T10:33:19.177Z,39.7162
2023-04-26T10:34:20.638Z,38.9631
2023-04-26T10:35:22.400Z,38.4777
2023-04-26T10:36:23.915Z,38.7777
2023-04-26T10:37:25.602Z,36.9723
2023-04-26T10:38:27.256Z,36.0923
2023-04-26T10:39:29.056Z,35.2754
2023-04-26T10:40:30.598Z,35.0538
2023-04-26T10:41:33.217Z,37.0669
2023-04-26T10:42:33.848Z,37.0008
2023-04-26T10:43:35.516Z,37.2608
2023-04-26T10:44:37.170Z,38.3546
2023-04-26T10:45:38.993Z,37.4131
2023-04-26T10:46:41.520Z,38.3115
2023-04-26T10:47:42.022Z,37.4362
2023-04-26T10:48:43.753Z,37.3169
2023-04-26T10:49:45.388Z,36.3923
2023-04-26T10:50:48.046Z,36.3885
2023-04-26T10:51:49.647Z,36.4000
2023-04-26T10:52:50.406Z,36.9177
2023-04-26T10:53:54.006Z,36.8346
2023-04-26T10:54:53.605Z,36.1908
2023-04-26T10:55:55.214Z,36.4954
2023-04-26T10:56:56.918Z,35.1769
2023-04-26T10:57:58.545Z,35.1246
2023-04-26T10:59:00.193Z,34.6754
2023-04-26T11:00:01.788Z,35.9677
2023-04-26T11:01:03.556Z,37.0408
2023-04-26T11:02:05.123Z,37.1831
2023-04-26T11:03:07.059Z,36.2569
2023-04-26T11:04:08.580Z,35.2146
2023-04-26T11:05:10.093Z,36.6585
2023-04-26T11:06:12.620Z,35.3569
2023-04-26T11:07:13.382Z,33.9808
2023-04-26T11:08:15.028Z,33.1385
2023-04-26T11:09:16.606Z,33.4454
2023-04-26T11:10:18.330Z,34.3046
2023-04-26T11:11:19.974Z,35.4654
2023-04-26T11:12:21.640Z,35.8538
2023-04-26T11:13:23.259Z,36.5208
2023-04-26T11:14:24.934Z,35.3469
2023-04-26T11:15:26.497Z,33.6931
2023-04-26T11:16:29.195Z,33.4992
2023-04-26T11:17:30.111Z,32.8177
2023-04-26T11:18:31.590Z,32.1385
2023-04-26T11:19:33.218Z,31.9677
2023-04-26T11:20:34.842Z,33.0246
2023-04-26T11:21:36.484Z,33.5946
2023-04-26T11:22:38.629Z,33.8462
2023-04-26T11:23:39.720Z,34.3762
2023-04-26T11:24:41.406Z,34.4808
2023-04-26T11:25:43.034Z,34.7100
2023-04-26T11:26:44.748Z,34.2638
2023-04-26T11:27:46.386Z,32.1046
2023-04-26T11:28:48.041Z,32.5762
2023-04-26T11:29:49.687Z,30.6992
2023-04-26T11:30:51.382Z,32.6977
2023-04-26T11:31:53.200Z,31.0469
2023-04-26T11:32:54.725Z,30.6408
2023-04-26T11:33:56.868Z,32.0492
2023-04-26T11:34:58.026Z,32.6738
2023-04-26T11:35:59.643Z,32.4062
2023-04-26T11:37:01.640Z,32.6292
2023-04-26T11:38:02.973Z,33.5231
2023-04-26T11:39:04.624Z,33.2523
2023-04-26T11:40:06.183Z,34.1669
2023-04-26T11:41:07.946Z,34.6477
2023-04-26T11:42:09.526Z,33.5531
2023-04-26T11:43:11.306Z,33.2469
2023-04-26T11:44:12.892Z,32.6808
2023-04-26T11:45:14.499Z,32.9008
2023-04-26T11:46:16.111Z,33.0677
2023-04-26T11:47:17.841Z,32.1277
2023-04-26T11:48:19.506Z,32.4438
2023-04-26T11:49:21.112Z,32.3446
2023-04-26T11:50:22.713Z,32.4700
2023-04-26T11:51:24.390Z,32.6808
2023-04-26T11:52:26.048Z,33.0546
2023-04-26T11:53:27.785Z,34.0223
2023-04-26T11:54:29.280Z,34.0623
2023-04-26T11:55:31.014Z,34.5523
2023-04-26T11:56:32.609Z,35.6031
2023-04-26T11:57:34.339Z,34.8992
2023-04-26T11:58:36.110Z,34.9038
2023-04-26T11:59:37.558Z,32.4800
2023-04-26T12:00:39.188Z,30.5985
2023-04-26T12:01:40.950Z,32.8792
2023-04-26T12:02:42.633Z,33.3238
2023-04-26T12:03:44.370Z,33.2638
2023-04-26T12:04:46.033Z,34.5185
2023-04-26T12:05:47.508Z,34.0123
2023-04-26T12:06:49.071Z,33.8792
2023-04-26T12:07:50.823Z,32.4000
2023-04-26T12:08:52.905Z,34.9300
2023-04-26T12:09:54.090Z,33.5569
2023-04-26T12:10:55.684Z,32.1185
2023-04-26T12:11:57.377Z,32.7415
2023-04-26T12:12:59.845Z,33.7377
2023-04-26T12:14:00.726Z,34.5777
2023-04-26T12:15:02.312Z,34.5954
2023-04-26T12:16:07.285Z,35.5231
2023-04-26T12:17:05.680Z,34.6892
2023-04-26T12:18:07.384Z,34.0615
2023-04-26T12:19:09.009Z,33.7415
2023-04-26T12:20:10.605Z,34.0385
2023-04-26T12:21:12.182Z,34.3985
2023-04-26T12:22:13.915Z,34.5338
2023-04-26T12:23:15.544Z,35.2677
2023-04-26T12:24:17.238Z,35.7723
2023-04-26T12:25:18.781Z,37.3692
2023-04-26T12:26:20.520Z,34.4285